createdAt,value
2018-02-10T00:00:09.926Z,81.15
2018-02-10T00:02:38.214Z,81.03
2018-02-10T00:05:06.467Z,81.63
2018-02-10T00:07:35.505Z,82.17
2018-02-10T00:10:03.776Z,82.10
2018-02-10T00:12:32.048Z,81.63
2018-02-10T00:15:00.315Z,81.99
2018-02-10T00:17:28.604Z,81.94
2018-02-10T00:19:56.870Z,81.85
2018-02-10T00:22:35.145Z,81.49
2018-02-10T00:25:04.174Z,81.37
2018-02-10T00:27:32.463Z,82.08
2018-02-10T00:30:00.748Z,81.93
2018-02-10T00:32:29.021Z,81.68
2018-02-10T00:34:57.290Z,82.28
2018-02-10T00:37:25.565Z,82.53
2018-02-10T00:39:53.830Z,82.41
2018-02-10T00:42:22.098Z,82.58
2018-02-10T00:44:50.353Z,82.19
2018-02-10T00:47:18.618Z,82.01
2018-02-10T00:49:47.648Z,81.92
2018-02-10T00:52:15.925Z,82.29
2018-02-10T00:54:44.227Z,81.88
2018-02-10T00:57:12.456Z,82.13
2018-02-10T00:59:40.744Z,81.42
2018-02-10T01:02:09.006Z,81.46
2018-02-10T01:04:37.273Z,81.39
2018-02-10T01:07:06.293Z,81.25
2018-02-10T01:09:34.562Z,81.16
2018-02-10T01:12:02.819Z,81.46
2018-02-10T01:14:31.089Z,81.61
2018-02-10T01:17:00.117Z,81.38
2018-02-10T01:19:28.385Z,81.26
2018-02-10T01:21:56.645Z,80.73
2018-02-10T01:24:24.916Z,80.64
2018-02-10T01:26:53.940Z,81.46
2018-02-10T01:29:22.211Z,81.84
2018-02-10T01:31:50.469Z,81.95
2018-02-10T01:34:18.750Z,81.80
2018-02-10T01:36:47.017Z,81.89
2018-02-10T01:39:16.042Z,81.97
2018-02-10T01:41:44.311Z,82.19
2018-02-10T01:44:12.580Z,82.13
2018-02-10T01:46:40.838Z,82.45
2018-02-10T01:49:09.105Z,82.51
2018-02-10T01:51:38.142Z,82.31
2018-02-10T01:54:06.454Z,82.32
2018-02-10T01:56:34.713Z,81.99
2018-02-10T01:59:02.983Z,81.65
2018-02-10T02:01:31.241Z,81.69
2018-02-10T02:03:59.497Z,81.68
2018-02-10T02:06:27.758Z,81.66
2018-02-10T02:08:56.038Z,82.48
2018-02-10T02:11:24.309Z,82.46
2018-02-10T02:13:52.578Z,82.25
2018-02-10T02:16:21.615Z,82.13
2018-02-10T02:18:49.867Z,82.27
2018-02-10T02:21:18.130Z,81.83
2018-02-10T02:23:46.390Z,81.33
2018-02-10T02:26:15.421Z,81.24
2018-02-10T02:28:43.684Z,81.54
2018-02-10T02:31:11.951Z,82.40
2018-02-10T02:33:40.221Z,82.83
2018-02-10T02:36:09.253Z,82.79
2018-02-10T02:38:37.510Z,82.99
2018-02-10T02:41:05.787Z,83.03
2018-02-10T02:43:34.054Z,82.56
2018-02-10T02:46:02.324Z,82.79
2018-02-10T02:48:30.587Z,82.97
2018-02-10T02:50:59.623Z,82.74
2018-02-10T02:53:27.885Z,83.20
2018-02-10T02:55:56.158Z,83.15
2018-02-10T02:58:24.416Z,83.08
2018-02-10T03:00:53.446Z,83.05
2018-02-10T03:03:21.701Z,83.16
2018-02-10T03:05:49.969Z,83.15
2018-02-10T03:08:18.238Z,83.44
2018-02-10T03:10:46.520Z,83.03
2018-02-10T03:13:14.782Z,82.52
2018-02-10T03:15:43.809Z,82.69
2018-02-10T03:18:12.069Z,83.06
2018-02-10T03:20:40.333Z,82.98
2018-02-10T03:23:08.603Z,82.87
2018-02-10T03:25:37.682Z,82.96
2018-02-10T03:28:05.938Z,83.32
2018-02-10T03:30:34.189Z,83.04
2018-02-10T03:33:02.458Z,83.24
2018-02-10T03:35:30.730Z,83.67
2018-02-10T03:37:59.001Z,83.79
2018-02-10T03:40:27.266Z,83.65
2018-02-10T03:42:55.536Z,83.44
2018-02-10T03:45:23.842Z,83.23
2018-02-10T03:47:52.833Z,83.49
2018-02-10T03:50:21.101Z,83.62
2018-02-10T03:52:49.365Z,83.34
2018-02-10T03:55:17.625Z,83.64
2018-02-10T03:57:46.652Z,83.26
2018-02-10T04:00:14.917Z,83.86
2018-02-10T04:02:43.200Z,83.73
2018-02-10T04:05:11.458Z,83.37
2018-02-10T04:07:39.725Z,83.37
2018-02-10T04:10:07.982Z,84.04
2018-02-10T04:12:37.023Z,84.51
2018-02-10T04:15:05.281Z,84.66
2018-02-10T04:17:33.545Z,85.20
2018-02-10T04:20:01.810Z,85.42
2018-02-10T04:22:30.852Z,85.34
2018-02-10T04:24:59.106Z,85.10
2018-02-10T04:27:27.383Z,85.00
2018-02-10T04:29:55.646Z,85.81
2018-02-10T04:32:23.920Z,85.96
2018-02-10T04:34:52.180Z,86.05
2018-02-10T04:37:21.231Z,86.01
2018-02-10T04:39:49.486Z,86.09
2018-02-10T04:42:17.754Z,85.98
2018-02-10T04:44:46.018Z,86.14
2018-02-10T04:47:14.286Z,85.82
2018-02-10T04:49:43.318Z,86.10
2018-02-10T04:52:11.587Z,85.95
2018-02-10T04:54:39.840Z,86.19
2018-02-10T04:57:08.116Z,85.78
2018-02-10T04:59:36.382Z,86.00
2018-02-10T05:02:05.420Z,85.46
2018-02-10T05:04:33.677Z,85.59
2018-02-10T05:07:01.950Z,85.57
2018-02-10T05:09:30.205Z,85.58
2018-02-10T05:11:58.490Z,85.43
2018-02-10T05:14:26.758Z,85.13
2018-02-10T05:16:55.029Z,84.88
2018-02-10T05:19:24.059Z,84.79
2018-02-10T05:21:52.336Z,84.63
2018-02-10T05:24:20.603Z,84.62
2018-02-10T05:26:48.868Z,84.68
2018-02-10T05:29:17.128Z,84.48
2018-02-10T05:31:45.408Z,84.09
2018-02-10T05:34:14.435Z,85.88
2018-02-10T05:36:42.704Z,86.17
2018-02-10T05:39:10.960Z,84.75
2018-02-10T05:41:39.233Z,85.97
2018-02-10T05:44:07.488Z,84.59
2018-02-10T05:46:36.525Z,83.99
2018-02-10T05:49:04.807Z,84.16
2018-02-10T05:51:33.058Z,84.34
2018-02-10T05:54:01.326Z,84.68
2018-02-10T05:56:29.589Z,84.06
2018-02-10T05:58:58.629Z,83.91
2018-02-10T06:01:26.891Z,83.90
2018-02-10T06:03:55.172Z,84.73
2018-02-10T06:06:23.434Z,84.72
2018-02-10T06:08:51.720Z,84.40
2018-02-10T06:11:19.970Z,83.51
2018-02-10T06:13:48.242Z,83.40
2018-02-10T06:16:17.272Z,83.75
2018-02-10T06:18:45.539Z,84.65
2018-02-10T06:21:13.793Z,84.60
2018-02-10T06:23:42.058Z,84.54
2018-02-10T06:26:11.085Z,85.07
2018-02-10T06:28:39.355Z,85.70
2018-02-10T06:31:07.614Z,84.74
2018-02-10T06:33:35.883Z,84.91
2018-02-10T06:36:04.901Z,85.89
2018-02-10T06:38:33.161Z,86.00
2018-02-10T06:41:01.435Z,86.15
2018-02-10T06:43:29.712Z,87.12
2018-02-10T06:45:58.731Z,85.87
2018-02-10T06:48:27.000Z,85.09
2018-02-10T06:50:55.271Z,85.41
2018-02-10T06:53:23.546Z,85.09
2018-02-10T06:55:51.810Z,85.57
2018-02-10T06:58:20.087Z,86.17
2018-02-10T07:00:48.338Z,85.92
2018-02-10T07:03:17.375Z,85.60
2018-02-10T07:05:45.634Z,86.37
2018-02-10T07:08:13.910Z,84.89
2018-02-10T07:10:42.162Z,84.54
2018-02-10T07:13:11.195Z,83.84
2018-02-10T07:15:39.458Z,84.65
2018-02-10T07:18:07.732Z,84.87
2018-02-10T07:20:35.986Z,85.10
2018-02-10T07:23:05.063Z,84.89
2018-02-10T07:25:33.318Z,84.70
2018-02-10T07:28:01.573Z,84.83
2018-02-10T07:30:30.613Z,84.17
2018-02-10T07:32:59.659Z,83.98
2018-02-10T07:35:27.916Z,84.40
2018-02-10T07:37:56.191Z,84.92
2018-02-10T07:40:24.458Z,84.33
2018-02-10T07:42:52.723Z,83.75
2018-02-10T07:45:21.761Z,83.70
2018-02-10T07:47:50.800Z,83.57
2018-02-10T07:50:19.839Z,83.35
2018-02-10T07:52:48.102Z,83.78
2018-02-10T07:55:16.383Z,83.80
2018-02-10T07:57:44.638Z,83.44
2018-02-10T08:00:13.671Z,84.00
2018-02-10T08:02:41.937Z,83.90
2018-02-10T08:05:10.209Z,83.42
2018-02-10T08:07:38.465Z,82.94
2018-02-10T08:10:07.475Z,82.48
2018-02-10T08:12:35.729Z,81.82
2018-02-10T08:15:03.995Z,81.92
2018-02-10T08:17:33.020Z,81.29
2018-02-10T08:20:01.277Z,81.09
2018-02-10T08:22:29.543Z,80.80
2018-02-10T08:24:58.556Z,80.80
2018-02-10T08:27:26.818Z,80.31
2018-02-10T08:29:55.071Z,80.54
2018-02-10T08:32:23.338Z,80.65
2018-02-10T08:34:51.605Z,80.44
2018-02-10T08:37:19.870Z,79.90
2018-02-10T08:39:48.122Z,79.73
2018-02-10T08:42:16.386Z,79.57
2018-02-10T08:44:44.624Z,79.43
2018-02-10T08:47:13.656Z,79.31
2018-02-10T08:49:41.906Z,78.27
2018-02-10T08:52:10.923Z,78.09
2018-02-10T08:54:39.193Z,78.64
2018-02-10T08:57:07.457Z,78.80
2018-02-10T08:59:36.478Z,77.77
2018-02-10T09:02:04.726Z,78.17
2018-02-10T09:04:32.987Z,78.71
2018-02-10T09:07:01.243Z,78.88
2018-02-10T09:09:29.505Z,78.65
2018-02-10T09:11:57.765Z,78.66
2018-02-10T09:14:26.045Z,79.11
2018-02-10T09:16:54.285Z,79.03
2018-02-10T09:19:22.546Z,79.00
2018-02-10T09:21:51.594Z,79.23
2018-02-10T09:24:19.838Z,78.37
2018-02-10T09:26:48.090Z,78.97
2018-02-10T09:29:17.108Z,78.26
2018-02-10T09:31:45.371Z,78.72
2018-02-10T09:34:14.385Z,78.38
2018-02-10T09:36:42.634Z,78.19
2018-02-10T09:39:11.656Z,78.52
2018-02-10T09:41:39.901Z,78.55
2018-02-10T09:44:08.924Z,78.51
2018-02-10T09:46:37.177Z,77.78
2018-02-10T09:49:06.195Z,77.53
2018-02-10T09:51:34.445Z,77.59
2018-02-10T09:54:03.472Z,77.90
2018-02-10T09:56:31.723Z,77.31
2018-02-10T09:58:59.982Z,78.09
2018-02-10T10:01:29.008Z,78.20
2018-02-10T10:03:57.259Z,78.12
2018-02-10T10:06:25.515Z,77.32
2018-02-10T10:08:53.773Z,77.01
2018-02-10T10:11:22.022Z,76.86
2018-02-10T10:13:50.285Z,77.09
2018-02-10T10:16:18.533Z,77.96
2018-02-10T10:18:46.799Z,77.17
2018-02-10T10:21:15.813Z,77.77
2018-02-10T10:23:44.062Z,77.90
2018-02-10T10:26:13.086Z,77.78
2018-02-10T10:28:41.336Z,78.37
2018-02-10T10:31:10.363Z,77.36
2018-02-10T10:33:38.619Z,77.25
2018-02-10T10:36:07.625Z,77.32
2018-02-10T10:38:35.926Z,77.28
2018-02-10T10:41:04.186Z,78.22
2018-02-10T10:43:32.433Z,76.65
2018-02-10T10:46:01.503Z,76.47
2018-02-10T10:48:29.715Z,76.31
2018-02-10T10:50:57.976Z,76.54
2018-02-10T10:53:26.987Z,74.83
2018-02-10T10:55:55.248Z,75.36
2018-02-10T10:58:24.336Z,75.71
2018-02-10T11:00:53.500Z,74.60
2018-02-10T11:03:21.926Z,75.05
2018-02-10T11:05:50.187Z,75.60
2018-02-10T11:08:19.201Z,75.75
2018-02-10T11:10:47.458Z,74.29
2018-02-10T11:13:16.477Z,75.94
2018-02-10T11:15:44.742Z,75.68
2018-02-10T11:18:12.990Z,74.71
2018-02-10T11:20:42.012Z,74.49
2018-02-10T11:23:10.264Z,74.50
2018-02-10T11:25:39.283Z,73.97
2018-02-10T11:28:07.564Z,74.73
2018-02-10T11:30:36.566Z,75.91
2018-02-10T11:33:04.807Z,75.69
2018-02-10T11:35:33.818Z,75.77
2018-02-10T11:38:02.082Z,74.84
2018-02-10T11:40:31.093Z,74.11
2018-02-10T11:42:59.362Z,73.21
2018-02-10T11:45:27.597Z,73.50
2018-02-10T11:47:55.855Z,72.10
2018-02-10T11:50:24.094Z,73.82
2018-02-10T11:52:52.362Z,74.59
2018-02-10T11:55:21.362Z,73.28
2018-02-10T11:57:49.614Z,74.39
2018-02-10T12:00:18.629Z,75.24
2018-02-10T12:02:46.898Z,75.41
2018-02-10T12:05:15.130Z,75.52
2018-02-10T12:07:43.385Z,75.85
2018-02-10T12:10:11.638Z,75.61
2018-02-10T12:12:39.898Z,75.65
2018-02-10T12:15:08.147Z,76.26
2018-02-10T12:17:36.410Z,75.84
2018-02-10T12:20:04.658Z,75.52
2018-02-10T12:22:32.903Z,75.21
2018-02-10T12:25:01.146Z,74.71
2018-02-10T12:27:29.413Z,75.76
2018-02-10T12:29:57.650Z,75.68
2018-02-10T12:32:25.908Z,75.33
2018-02-10T12:34:54.160Z,75.29
2018-02-10T12:37:23.174Z,74.69
2018-02-10T12:39:51.552Z,74.62
2018-02-10T12:42:19.838Z,75.31
2018-02-10T12:44:48.820Z,75.06
2018-02-10T12:47:17.088Z,74.63
2018-02-10T12:49:46.102Z,74.77
2018-02-10T12:52:14.345Z,74.37
2018-02-10T12:54:43.373Z,74.30
2018-02-10T12:57:11.622Z,74.77
2018-02-10T12:59:40.638Z,75.26
2018-02-10T13:02:08.901Z,75.58
2018-02-10T13:04:37.149Z,76.06
2018-02-10T13:07:06.173Z,76.08
2018-02-10T13:09:34.422Z,76.04
2018-02-10T13:12:03.482Z,76.09
2018-02-10T13:14:31.734Z,76.25
2018-02-10T13:16:59.978Z,76.97
2018-02-10T13:19:28.996Z,76.44
2018-02-10T13:21:57.255Z,77.12
2018-02-10T13:24:25.508Z,77.63
2018-02-10T13:26:54.525Z,77.88
2018-02-10T13:29:22.777Z,77.99
2018-02-10T13:31:51.869Z,78.50
2018-02-10T13:34:20.126Z,78.31
2018-02-10T13:36:48.370Z,77.79
2018-02-10T13:39:16.621Z,77.93
2018-02-10T13:41:44.865Z,77.98
2018-02-10T13:44:13.134Z,78.35
2018-02-10T13:46:41.389Z,78.45
2018-02-10T13:49:09.642Z,78.55
2018-02-10T13:51:37.900Z,78.23
2018-02-10T13:54:06.153Z,78.58
2018-02-10T13:56:35.186Z,78.55
2018-02-10T13:59:03.442Z,78.88
2018-02-10T14:01:31.688Z,78.38
2018-02-10T14:03:59.937Z,78.06
2018-02-10T14:06:28.203Z,78.20
2018-02-10T14:08:56.450Z,78.66
2018-02-10T14:11:24.694Z,78.40
2018-02-10T14:13:52.982Z,78.39
2018-02-10T14:16:21.190Z,78.72
2018-02-10T14:18:49.456Z,78.76
2018-02-10T14:21:17.707Z,79.03
2018-02-10T14:23:46.736Z,79.10
2018-02-10T14:26:14.983Z,79.01
2018-02-10T14:28:44.014Z,79.72
2018-02-10T14:31:12.250Z,79.32
2018-02-10T14:33:40.511Z,79.10
2018-02-10T14:36:09.526Z,79.03
2018-02-10T14:38:37.777Z,79.01
2018-02-10T14:41:06.802Z,78.89
2018-02-10T14:43:35.058Z,78.52
2018-02-10T14:46:04.072Z,78.04
2018-02-10T14:48:32.322Z,78.76
2018-02-10T14:51:01.353Z,78.06
2018-02-10T14:53:29.594Z,78.17
2018-02-10T14:55:58.606Z,78.92
2018-02-10T14:58:26.872Z,78.70
2018-02-10T15:00:55.876Z,78.84
2018-02-10T15:03:24.137Z,78.70
2018-02-10T15:05:52.394Z,78.92
2018-02-10T15:08:20.654Z,78.53
2018-02-10T15:10:48.898Z,78.70
2018-02-10T15:13:17.153Z,78.80
2018-02-10T15:15:45.405Z,78.77
2018-02-10T15:18:14.425Z,78.85
2018-02-10T15:20:42.681Z,78.79
2018-02-10T15:23:11.703Z,79.80
2018-02-10T15:25:39.958Z,79.91
2018-02-10T15:28:08.211Z,79.64
2018-02-10T15:30:55.016Z,79.35
2018-02-10T15:33:41.710Z,79.39
2018-02-10T15:36:09.956Z,79.20
2018-02-10T15:38:38.209Z,79.69
2018-02-10T15:41:06.458Z,79.59
2018-02-10T15:43:35.480Z,79.72
2018-02-10T15:46:03.742Z,79.63
2018-02-10T15:48:32.764Z,80.35
2018-02-10T15:51:01.025Z,79.71
2018-02-10T15:53:29.281Z,79.74
2018-02-10T15:55:58.289Z,79.48
2018-02-10T15:58:26.556Z,80.45
2018-02-10T16:00:54.818Z,80.31
2018-02-10T16:03:23.830Z,80.02
2018-02-10T16:05:52.098Z,80.27
2018-02-10T16:08:21.106Z,79.90
2018-02-10T16:10:49.365Z,80.29
2018-02-10T16:13:17.621Z,80.11
2018-02-10T16:15:45.886Z,80.04
2018-02-10T16:18:14.132Z,79.92
2018-02-10T16:20:42.395Z,80.29
2018-02-10T16:23:10.647Z,80.41
2018-02-10T16:25:38.909Z,80.80
2018-02-10T16:28:07.930Z,80.66
2018-02-10T16:30:36.198Z,80.75
2018-02-10T16:33:04.451Z,80.38
2018-02-10T16:35:33.478Z,80.29
2018-02-10T16:38:01.738Z,80.10
2018-02-10T16:40:30.008Z,80.55
2018-02-10T16:42:59.021Z,80.54
2018-02-10T16:45:27.277Z,80.24
2018-02-10T16:47:55.542Z,80.28
2018-02-10T16:50:24.565Z,80.23
2018-02-10T16:52:52.817Z,80.55
2018-02-10T16:55:21.852Z,80.06
2018-02-10T16:57:50.114Z,80.07
2018-02-10T17:00:18.382Z,79.82
2018-02-10T17:02:46.637Z,79.73
2018-02-10T17:05:15.657Z,79.97
2018-02-10T17:07:43.913Z,79.99
2018-02-10T17:10:12.947Z,80.02
2018-02-10T17:12:41.201Z,80.01
2018-02-10T17:15:09.458Z,80.41
2018-02-10T17:17:37.723Z,80.36
2018-02-10T17:20:06.753Z,80.35
2018-02-10T17:22:35.010Z,81.29
2018-02-10T17:25:03.281Z,79.30
2018-02-10T17:27:31.537Z,79.66
2018-02-10T17:29:59.819Z,79.91
2018-02-10T17:32:28.832Z,80.71
2018-02-10T17:34:57.086Z,79.48
2018-02-10T17:37:25.341Z,79.29
2018-02-10T17:39:53.590Z,79.27
2018-02-10T17:42:21.853Z,79.37
2018-02-10T17:44:50.124Z,79.36
2018-02-10T17:47:18.389Z,78.58
2018-02-10T17:49:46.644Z,80.33
2018-02-10T17:52:16.568Z,79.80
2018-02-10T17:54:44.809Z,77.65
2018-02-10T17:57:13.083Z,78.36
2018-02-10T17:59:41.335Z,78.69
2018-02-10T18:02:09.608Z,79.06
2018-02-10T18:04:37.865Z,79.06
2018-02-10T18:07:06.127Z,80.21
2018-02-10T18:09:34.408Z,79.45
2018-02-10T18:12:02.680Z,79.55
2018-02-10T18:14:30.929Z,79.72
2018-02-10T18:16:59.203Z,79.81
2018-02-10T18:19:27.464Z,79.55
2018-02-10T18:21:55.717Z,79.27
2018-02-10T18:24:23.975Z,79.70
2018-02-10T18:26:52.305Z,79.35
2018-02-10T18:29:21.330Z,79.79
2018-02-10T18:31:49.582Z,79.70
2018-02-10T18:34:18.612Z,79.82
2018-02-10T18:36:46.861Z,80.08
2018-02-10T18:39:15.127Z,80.43
2018-02-10T18:41:44.207Z,80.20
2018-02-10T18:44:12.413Z,80.52
2018-02-10T18:46:40.665Z,80.58
2018-02-10T18:49:09.702Z,80.38
2018-02-10T18:51:37.946Z,80.77
2018-02-10T18:54:06.969Z,80.96
2018-02-10T18:56:35.267Z,81.41
2018-02-10T18:59:03.477Z,81.33
2018-02-10T19:01:32.499Z,81.40
2018-02-10T19:04:00.753Z,81.69
2018-02-10T19:06:29.770Z,81.60
2018-02-10T19:08:58.201Z,81.86
2018-02-10T19:11:26.449Z,82.12
2018-02-10T19:13:54.706Z,82.47
2018-02-10T19:16:22.961Z,82.45
2018-02-10T19:18:52.298Z,82.53
2018-02-10T19:21:20.549Z,82.45
2018-02-10T19:23:48.816Z,82.51
2018-02-10T19:26:17.083Z,82.57
2018-02-10T19:28:46.107Z,82.43
2018-02-10T19:31:14.365Z,82.14
2018-02-10T19:33:42.626Z,82.01
2018-02-10T19:36:11.673Z,82.44
2018-02-10T19:38:39.983Z,82.37
2018-02-10T19:41:08.323Z,82.16
2018-02-10T19:43:36.697Z,82.12
2018-02-10T19:46:05.095Z,82.38
2018-02-10T19:48:33.378Z,82.29
2018-02-10T19:51:01.648Z,82.22
2018-02-10T19:53:29.916Z,82.59
2018-02-10T19:55:58.294Z,82.46
2018-02-10T19:58:26.558Z,82.57
2018-02-10T20:00:54.826Z,82.59
2018-02-10T20:03:23.097Z,82.41
2018-02-10T20:05:51.401Z,82.57
2018-02-10T20:08:19.653Z,82.47
2018-02-10T20:10:48.043Z,82.26
2018-02-10T20:13:16.329Z,82.14
2018-02-10T20:15:44.591Z,82.02
2018-02-10T20:18:12.838Z,82.05
2018-02-10T20:20:41.099Z,82.13
2018-02-10T20:23:10.122Z,82.01
2018-02-10T20:25:38.382Z,81.64
2018-02-10T20:28:06.638Z,81.92
2018-02-10T20:30:35.675Z,82.07
2018-02-10T20:33:03.933Z,82.00
2018-02-10T20:35:32.193Z,82.03
2018-02-10T20:38:00.442Z,82.00
2018-02-10T20:40:28.704Z,82.00
2018-02-10T20:42:56.954Z,82.03
2018-02-10T20:45:25.213Z,81.73
2018-02-10T20:47:53.461Z,81.85
2018-02-10T20:50:22.498Z,81.75
2018-02-10T20:52:50.742Z,81.65
2018-02-10T20:55:19.000Z,81.82
2018-02-10T20:57:48.020Z,81.62
2018-02-10T21:00:16.302Z,81.68
2018-02-10T21:02:44.551Z,82.09
2018-02-10T21:05:13.562Z,82.33
2018-02-10T21:07:41.826Z,82.14
2018-02-10T21:10:10.845Z,82.13
2018-02-10T21:12:39.120Z,82.30
2018-02-10T21:15:07.379Z,82.52
2018-02-10T21:17:35.643Z,82.71
2018-02-10T21:20:04.660Z,82.75
2018-02-10T21:22:32.918Z,82.71
2018-02-10T21:25:01.930Z,82.80
2018-02-10T21:27:30.186Z,82.98
2018-02-10T21:29:59.201Z,83.17
2018-02-10T21:32:27.462Z,83.21
2018-02-10T21:34:55.719Z,83.43
2018-02-10T21:37:24.749Z,83.41
2018-02-10T21:39:53.005Z,83.74
2018-02-10T21:42:21.262Z,83.89
2018-02-10T21:44:50.277Z,83.93
2018-02-10T21:47:18.539Z,84.03
2018-02-10T21:49:47.563Z,84.09
2018-02-10T21:52:15.822Z,84.49
2018-02-10T21:54:44.086Z,84.70
2018-02-10T21:57:13.103Z,84.77
2018-02-10T21:59:41.344Z,85.36
2018-02-10T22:02:10.371Z,85.29
2018-02-10T22:04:38.622Z,85.53
2018-02-10T22:07:07.669Z,85.44
2018-02-10T22:09:36.129Z,85.62
2018-02-10T22:12:04.701Z,85.81
2018-02-10T22:14:33.188Z,85.76
2018-02-10T22:17:01.776Z,85.99
2018-02-10T22:19:30.256Z,85.76
2018-02-10T22:21:58.946Z,85.93
2018-02-10T22:24:27.405Z,85.80
2018-02-10T22:26:55.891Z,85.92
2018-02-10T22:29:24.148Z,85.92
2018-02-10T22:31:52.413Z,85.84
2018-02-10T22:34:21.430Z,85.76
2018-02-10T22:36:49.995Z,85.63
2018-02-10T22:39:18.358Z,85.76
2018-02-10T22:41:46.618Z,85.68
2018-02-10T22:44:14.874Z,85.66
2018-02-10T22:46:43.131Z,85.41
2018-02-10T22:49:11.392Z,85.67
2018-02-10T22:51:39.654Z,85.77
2018-02-10T22:54:08.669Z,85.77
2018-02-10T22:56:36.922Z,85.58
2018-02-10T22:59:05.175Z,85.66
2018-02-10T23:01:33.434Z,85.79
2018-02-10T23:04:01.700Z,85.68
2018-02-10T23:06:29.957Z,85.56
2018-02-10T23:08:58.205Z,85.67
2018-02-10T23:11:26.467Z,85.52
2018-02-10T23:13:55.480Z,85.75
2018-02-10T23:16:23.747Z,85.87
2018-02-10T23:18:52.991Z,85.93
2018-02-10T23:21:21.254Z,85.95
2018-02-10T23:23:49.514Z,86.13
2018-02-10T23:26:17.769Z,86.00
2018-02-10T23:28:46.781Z,85.99
2018-02-10T23:31:15.067Z,85.96
2018-02-10T23:33:43.323Z,85.96
2018-02-10T23:36:11.575Z,85.93
2018-02-10T23:38:40.646Z,85.75
2018-02-10T23:41:08.898Z,85.98
2018-02-10T23:43:37.153Z,85.99
2018-02-10T23:46:05.404Z,85.72
2018-02-10T23:48:34.438Z,85.84
2018-02-10T23:51:02.693Z,85.71
2018-02-10T23:53:30.960Z,85.81
2018-02-10T23:55:59.206Z,85.96
2018-02-10T23:58:28.247Z,85.73
